sensor_id;sensor_type;location;lat;lon;timestamp;pressure;altitude;pressure_sealevel;temperature;humidity
37078;BME280;22989;55.998;37.212;2022-10-14T00:01:11;99811.59;;;1.99;84.39
37078;BME280;22989;55.998;37.212;2022-10-14T00:03:38;99806.25;;;1.93;84.72
37078;BME280;22989;55.998;37.212;2022-10-14T00:06:12;99796.66;;;1.86;84.91
37078;BME280;22989;55.998;37.212;2022-10-14T00:08:39;99804.75;;;1.78;85.12
37078;BME280;22989;55.998;37.212;2022-10-14T00:11:10;99802.91;;;1.74;85.47
37078;BME280;22989;55.998;37.212;2022-10-14T00:13:37;99809.44;;;1.69;85.66
37078;BME280;22989;55.998;37.212;2022-10-14T00:16:04;99805.69;;;1.61;85.81
37078;BME280;22989;55.998;37.212;2022-10-14T00:18:30;99801.16;;;1.54;85.74
37078;BME280;22989;55.998;37.212;2022-10-14T00:20:58;99804.34;;;1.49;86.02
37078;BME280;22989;55.998;37.212;2022-10-14T00:23:24;99807.47;;;1.44;86.25
37078;BME280;22989;55.998;37.212;2022-10-14T00:25:50;99807.19;;;1.38;86.41
37078;BME280;22989;55.998;37.212;2022-10-14T00:28:16;99801.09;;;1.34;86.72
37078;BME280;22989;55.998;37.212;2022-10-14T00:30:52;99803.50;;;1.31;86.98
37078;BME280;22989;55.998;37.212;2022-10-14T00:33:17;99802.41;;;1.26;87.12
37078;BME280;22989;55.998;37.212;2022-10-14T00:35:43;99800.59;;;1.23;87.29
37078;BME280;22989;55.998;37.212;2022-10-14T00:38:09;99805.47;;;1.19;87.73
37078;BME280;22989;55.998;37.212;2022-10-14T00:40:34;99807.75;;;1.14;87.80
37078;BME280;22989;55.998;37.212;2022-10-14T00:43:01;99802.56;;;1.11;87.75
37078;BME280;22989;55.998;37.212;2022-10-14T00:45:26;99796.53;;;1.09;88.00
37078;BME280;22989;55.998;37.212;2022-10-14T00:47:53;99795.53;;;1.05;88.09
37078;BME280;22989;55.998;37.212;2022-10-14T00:50:19;99794.53;;;1.02;88.19
37078;BME280;22989;55.998;37.212;2022-10-14T00:52:45;99791.78;;;0.97;88.48
37078;BME280;22989;55.998;37.212;2022-10-14T00:55:17;99789.91;;;0.93;88.72
37078;BME280;22989;55.998;37.212;2022-10-14T00:57:43;99793.09;;;0.89;88.56
37078;BME280;22989;55.998;37.212;2022-10-14T01:00:12;99795.38;;;0.84;88.75
37078;BME280;22989;55.998;37.212;2022-10-14T01:02:39;99794.22;;;0.77;88.89
37078;BME280;22989;55.998;37.212;2022-10-14T01:05:08;99793.13;;;0.72;88.94
37078;BME280;22989;55.998;37.212;2022-10-14T01:08:10;99792.91;;;0.68;88.91
37078;BME280;22989;55.998;37.212;2022-10-14T01:11:01;99792.75;;;0.64;89.32
37078;BME280;22989;55.998;37.212;2022-10-14T01:13:36;99792.59;;;0.61;89.15
37078;BME280;22989;55.998;37.212;2022-10-14T01:21:44;99781.38;;;0.56;89.75
37078;BME280;22989;55.998;37.212;2022-10-14T01:27:12;99788.31;;;0.60;90.21
37078;BME280;22989;55.998;37.212;2022-10-14T01:37:56;99783.31;;;0.44;90.76
37078;BME280;22989;55.998;37.212;2022-10-14T01:42:58;99778.44;;;0.30;90.55
37078;BME280;22989;55.998;37.212;2022-10-14T01:45:27;99779.16;;;0.28;90.77
37078;BME280;22989;55.998;37.212;2022-10-14T01:47:56;99779.06;;;0.26;90.83
37078;BME280;22989;55.998;37.212;2022-10-14T01:50:28;99780.56;;;0.23;90.87
37078;BME280;22989;55.998;37.212;2022-10-14T01:53:03;99778.75;;;0.20;90.72
37078;BME280;22989;55.998;37.212;2022-10-14T01:55:36;99774.34;;;0.16;91.11
37078;BME280;22989;55.998;37.212;2022-10-14T01:58:03;99773.41;;;0.14;91.00
37078;BME280;22989;55.998;37.212;2022-10-14T02:00:31;99775.84;;;0.12;91.26
37078;BME280;22989;55.998;37.212;2022-10-14T02:03:00;99774.91;;;0.10;91.37
37078;BME280;22989;55.998;37.212;2022-10-14T02:05:37;99781.63;;;0.10;91.46
37078;BME280;22989;55.998;37.212;2022-10-14T02:08:24;99781.47;;;0.07;91.50
37078;BME280;22989;55.998;37.212;2022-10-14T02:19:01;99777.84;;;0.02;91.74
37078;BME280;22989;55.998;37.212;2022-10-14T02:21:37;99777.84;;;0.02;91.75
37078;BME280;22989;55.998;37.212;2022-10-14T02:24:13;99783.91;;;0.05;91.95
37078;BME280;22989;55.998;37.212;2022-10-14T02:26:44;99779.75;;;0.06;91.94
37078;BME280;22989;55.998;37.212;2022-10-14T02:29:11;99783.13;;;0.06;92.05
37078;BME280;22989;55.998;37.212;2022-10-14T02:31:38;99786.44;;;0.05;92.21
37078;BME280;22989;55.998;37.212;2022-10-14T02:34:10;99786.44;;;0.05;92.27
37078;BME280;22989;55.998;37.212;2022-10-14T02:36:37;99779.66;;;0.04;92.31
37078;BME280;22989;55.998;37.212;2022-10-14T02:39:05;99784.63;;;0.03;92.30
37078;BME280;22989;55.998;37.212;2022-10-14T02:41:36;99790.50;;;0.02;92.55
37078;BME280;22989;55.998;37.212;2022-10-14T02:44:04;99791.22;;;-0.01;92.61
37078;BME280;22989;55.998;37.212;2022-10-14T02:46:31;99788.28;;;-0.09;92.42
37078;BME280;22989;55.998;37.212;2022-10-14T02:48:57;99786.13;;;-0.18;92.35
37078;BME280;22989;55.998;37.212;2022-10-14T02:51:23;99794.13;;;-0.26;92.26
37078;BME280;22989;55.998;37.212;2022-10-14T02:53:49;99793.00;;;-0.31;92.23
37078;BME280;22989;55.998;37.212;2022-10-14T02:56:16;99796.03;;;-0.39;92.15
37078;BME280;22989;55.998;37.212;2022-10-14T02:58:42;99790.63;;;-0.45;91.98
37078;BME280;22989;55.998;37.212;2022-10-14T03:01:08;99792.03;;;-0.50;91.93
37078;BME280;22989;55.998;37.212;2022-10-14T03:03:35;99786.66;;;-0.56;92.02
37078;BME280;22989;55.998;37.212;2022-10-14T03:06:01;99783.88;;;-0.61;91.87
37078;BME280;22989;55.998;37.212;2022-10-14T03:08:28;99785.28;;;-0.66;91.74
37078;BME280;22989;55.998;37.212;2022-10-14T03:10:55;99780.84;;;-0.70;91.82
37078;BME280;22989;55.998;37.212;2022-10-14T03:13:21;99783.22;;;-0.73;91.59
37078;BME280;22989;55.998;37.212;2022-10-14T03:15:48;99781.31;;;-0.77;91.54
37078;BME280;22989;55.998;37.212;2022-10-14T03:18:16;99784.47;;;-0.81;91.52
37078;BME280;22989;55.998;37.212;2022-10-14T03:20:45;99783.50;;;-0.83;91.20
37078;BME280;22989;55.998;37.212;2022-10-14T03:23:15;99784.22;;;-0.86;91.36
37078;BME280;22989;55.998;37.212;2022-10-14T03:25:45;99788.31;;;-0.88;91.41
37078;BME280;22989;55.998;37.212;2022-10-14T03:28:33;99783.88;;;-0.92;91.38
37078;BME280;22989;55.998;37.212;2022-10-14T03:31:08;99788.75;;;-0.95;91.36
37078;BME280;22989;55.998;37.212;2022-10-14T03:34:02;99777.63;;;-0.99;91.45
37078;BME280;22989;55.998;37.212;2022-10-14T03:36:29;99783.38;;;-1.02;91.21
37078;BME280;22989;55.998;37.212;2022-10-14T03:38:56;99778.25;;;-1.03;91.33
37078;BME280;22989;55.998;37.212;2022-10-14T03:41:35;99781.47;;;-1.06;91.33
37078;BME280;22989;55.998;37.212;2022-10-14T03:44:01;99779.72;;;-1.07;91.08
37078;BME280;22989;55.998;37.212;2022-10-14T03:46:27;99774.50;;;-1.10;91.38
37078;BME280;22989;55.998;37.212;2022-10-14T03:48:53;99770.94;;;-1.13;91.10
37078;BME280;22989;55.998;37.212;2022-10-14T03:51:19;99773.47;;;-1.13;91.16
37078;BME280;22989;55.998;37.212;2022-10-14T03:53:45;99773.53;;;-1.12;91.04
37078;BME280;22989;55.998;37.212;2022-10-14T03:56:14;99769.47;;;-1.10;91.25
37078;BME280;22989;55.998;37.212;2022-10-14T03:58:41;99777.28;;;-1.05;91.25
37078;BME280;22989;55.998;37.212;2022-10-14T04:01:11;99772.41;;;-1.02;91.36
37078;BME280;22989;55.998;37.212;2022-10-14T04:03:57;99769.91;;;-1.02;91.26
37078;BME280;22989;55.998;37.212;2022-10-14T04:06:26;99765.78;;;-1.00;91.42
37078;BME280;22989;55.998;37.212;2022-10-14T04:08:55;99770.91;;;-0.98;91.27
37078;BME280;22989;55.998;37.212;2022-10-14T04:11:27;99766.75;;;-0.98;91.21
37078;BME280;22989;55.998;37.212;2022-10-14T04:14:00;99764.28;;;-0.96;90.94
37078;BME280;22989;55.998;37.212;2022-10-14T04:16:27;99760.97;;;-0.95;91.35
37078;BME280;22989;55.998;37.212;2022-10-14T04:19:05;99766.38;;;-0.89;91.18
37078;BME280;22989;55.998;37.212;2022-10-14T04:21:31;99770.78;;;-0.85;91.19
37078;BME280;22989;55.998;37.212;2022-10-14T04:23:57;99765.31;;;-0.78;91.15
37078;BME280;22989;55.998;37.212;2022-10-14T04:26:35;99767.44;;;-0.69;91.23
37078;BME280;22989;55.998;37.212;2022-10-14T04:29:02;99766.09;;;-0.62;91.01
37078;BME280;22989;55.998;37.212;2022-10-14T04:31:36;99767.31;;;-0.56;91.03
37078;BME280;22989;55.998;37.212;2022-10-14T04:34:02;99766.94;;;-0.47;91.13
37078;BME280;22989;55.998;37.212;2022-10-14T04:36:33;99767.38;;;-0.38;90.97
37078;BME280;22989;55.998;37.212;2022-10-14T04:39:00;99771.28;;;-0.28;91.09
37078;BME280;22989;55.998;37.212;2022-10-14T04:41:26;99770.09;;;-0.18;90.88
37078;BME280;22989;55.998;37.212;2022-10-14T04:43:54;99767.97;;;-0.10;90.66
37078;BME280;22989;55.998;37.212;2022-10-14T04:46:28;99770.91;;;-0.03;90.65
37078;BME280;22989;55.998;37.212;2022-10-14T04:48:56;99764.78;;;0.10;90.29
37078;BME280;22989;55.998;37.212;2022-10-14T04:51:26;99764.13;;;0.31;90.43
37078;BME280;22989;55.998;37.212;2022-10-14T04:54:15;99762.72;;;0.54;90.44
37078;BME280;22989;55.998;37.212;2022-10-14T04:56:59;99767.59;;;0.68;90.19
37078;BME280;22989;55.998;37.212;2022-10-14T04:59:25;99767.00;;;0.91;90.04
37078;BME280;22989;55.998;37.212;2022-10-14T05:01:59;99768.16;;;1.16;89.77
37078;BME280;22989;55.998;37.212;2022-10-14T05:04:34;99764.50;;;1.29;89.33
37078;BME280;22989;55.998;37.212;2022-10-14T05:07:00;99764.50;;;1.29;88.83
37078;BME280;22989;55.998;37.212;2022-10-14T05:09:27;99770.09;;;1.22;88.12
37078;BME280;22989;55.998;37.212;2022-10-14T05:11:53;99765.09;;;1.23;87.68
37078;BME280;22989;55.998;37.212;2022-10-14T05:14:23;99763.03;;;1.34;87.50
37078;BME280;22989;55.998;37.212;2022-10-14T05:17:01;99759.00;;;1.38;87.01
37078;BME280;22989;55.998;37.212;2022-10-14T05:19:29;99756.94;;;1.48;86.81
37078;BME280;22989;55.998;37.212;2022-10-14T05:21:56;99764.63;;;1.50;86.22
37078;BME280;22989;55.998;37.212;2022-10-14T05:24:31;99763.69;;;1.48;85.96
37078;BME280;22989;55.998;37.212;2022-10-14T05:26:57;99759.88;;;1.58;85.70
37078;BME280;22989;55.998;37.212;2022-10-14T05:29:24;99752.47;;;1.82;85.52
37078;BME280;22989;55.998;37.212;2022-10-14T05:31:50;99751.59;;;2.21;85.47
37078;BME280;22989;55.998;37.212;2022-10-14T05:34:31;99747.97;;;2.35;84.83
37078;BME280;22989;55.998;37.212;2022-10-14T05:36:57;99747.63;;;2.27;83.88
37078;BME280;22989;55.998;37.212;2022-10-14T05:39:25;99741.38;;;2.19;83.36
37078;BME280;22989;55.998;37.212;2022-10-14T05:41:53;99746.44;;;2.19;83.27
37078;BME280;22989;55.998;37.212;2022-10-14T05:44:23;99745.56;;;2.18;82.91
37078;BME280;22989;55.998;37.212;2022-10-14T05:46:49;99749.03;;;2.21;82.76
37078;BME280;22989;55.998;37.212;2022-10-14T05:49:14;99749.28;;;2.27;82.67
37078;BME280;22989;55.998;37.212;2022-10-14T05:51:42;99745.47;;;2.37;82.70
37078;BME280;22989;55.998;37.212;2022-10-14T05:54:14;99748.31;;;2.44;82.75
37078;BME280;22989;55.998;37.212;2022-10-14T05:56:41;99748.88;;;2.37;82.24
37078;BME280;22989;55.998;37.212;2022-10-14T05:59:11;99749.56;;;2.33;81.89
37078;BME280;22989;55.998;37.212;2022-10-14T06:01:38;99761.41;;;2.32;82.03
37078;BME280;22989;55.998;37.212;2022-10-14T06:04:04;99754.69;;;2.34;82.18
37078;BME280;22989;55.998;37.212;2022-10-14T06:06:31;99757.50;;;2.41;82.39
37078;BME280;22989;55.998;37.212;2022-10-14T06:08:57;99757.72;;;2.47;82.51
37078;BME280;22989;55.998;37.212;2022-10-14T06:11:22;99757.56;;;2.63;82.78
37078;BME280;22989;55.998;37.212;2022-10-14T06:13:48;99759.69;;;2.96;83.20
37078;BME280;22989;55.998;37.212;2022-10-14T06:16:15;99758.75;;;4.11;83.46
37078;BME280;22989;55.998;37.212;2022-10-14T06:18:41;99758.75;;;4.11;83.46
37078;BME280;22989;55.998;37.212;2022-10-14T06:21:07;99745.66;;;8.75;76.98
37078;BME280;22989;55.998;37.212;2022-10-14T06:23:34;99727.47;;;10.85;65.49
37078;BME280;22989;55.998;37.212;2022-10-14T06:26:03;99382.41;;;12.40;100.00
37078;BME280;22989;55.998;37.212;2022-10-14T06:28:28;63935.97;;;-145.39;100.00
37078;BME280;22989;55.998;37.212;2022-10-14T06:30:54;63935.97;;;-145.39;100.00
37078;BME280;22989;55.998;37.212;2022-10-14T06:33:21;84310.06;;;12.40;100.00
37078;BME280;22989;55.998;37.212;2022-10-14T06:35:47;63935.97;;;-145.39;100.00
37078;BME280;22989;55.998;37.212;2022-10-14T06:38:13;63935.97;;;-145.39;100.00
37078;BME280;22989;55.998;37.212;2022-10-14T06:40:39;63935.97;;;-145.39;100.00
37078;BME280;22989;55.998;37.212;2022-10-14T06:43:05;63935.97;;;-145.39;100.00
37078;BME280;22989;55.998;37.212;2022-10-14T06:45:31;63935.97;;;-145.39;100.00
37078;BME280;22989;55.998;37.212;2022-10-14T06:47:57;63935.97;;;-145.39;100.00
37078;BME280;22989;55.998;37.212;2022-10-14T06:50:23;63935.97;;;-145.39;100.00
37078;BME280;22989;55.998;37.212;2022-10-14T06:52:48;63935.97;;;-145.39;100.00
37078;BME280;22989;55.998;37.212;2022-10-14T06:55:14;63935.97;;;-145.39;100.00
37078;BME280;22989;55.998;37.212;2022-10-14T06:57:40;63935.97;;;-145.39;100.00
37078;BME280;22989;55.998;37.212;2022-10-14T07:00:06;63935.97;;;-145.39;100.00
37078;BME280;22989;55.998;37.212;2022-10-14T07:02:35;63935.97;;;-145.39;100.00
37078;BME280;22989;55.998;37.212;2022-10-14T07:05:01;63935.97;;;-145.39;100.00
37078;BME280;22989;55.998;37.212;2022-10-14T07:07:27;63935.97;;;-145.39;100.00
37078;BME280;22989;55.998;37.212;2022-10-14T07:09:52;63935.97;;;-145.39;100.00
37078;BME280;22989;55.998;37.212;2022-10-14T07:12:18;63935.97;;;-145.39;100.00
37078;BME280;22989;55.998;37.212;2022-10-14T07:14:44;63935.97;;;-145.39;100.00
37078;BME280;22989;55.998;37.212;2022-10-14T07:17:09;63935.97;;;-145.39;100.00
37078;BME280;22989;55.998;37.212;2022-10-14T07:19:35;63935.97;;;-145.39;100.00
37078;BME280;22989;55.998;37.212;2022-10-14T07:22:01;63935.97;;;-145.39;100.00
37078;BME280;22989;55.998;37.212;2022-10-14T07:24:26;63935.97;;;-145.39;100.00
37078;BME280;22989;55.998;37.212;2022-10-14T07:26:52;63935.97;;;-145.39;100.00
37078;BME280;22989;55.998;37.212;2022-10-14T07:29:18;63935.97;;;-145.39;100.00
37078;BME280;22989;55.998;37.212;2022-10-14T07:31:43;63935.97;;;-145.39;100.00
37078;BME280;22989;55.998;37.212;2022-10-14T07:34:09;63935.97;;;-145.39;100.00
37078;BME280;22989;55.998;37.212;2022-10-14T07:36:35;63935.97;;;-145.39;100.00
37078;BME280;22989;55.998;37.212;2022-10-14T07:39:02;63935.97;;;-145.39;100.00
37078;BME280;22989;55.998;37.212;2022-10-14T07:41:28;63935.97;;;-145.39;100.00
37078;BME280;22989;55.998;37.212;2022-10-14T07:43:58;63935.97;;;-145.39;100.00
37078;BME280;22989;55.998;37.212;2022-10-14T07:46:28;63935.97;;;-145.39;100.00
37078;BME280;22989;55.998;37.212;2022-10-14T07:49:16;63935.97;;;-145.39;100.00
37078;BME280;22989;55.998;37.212;2022-10-14T07:51:42;63935.97;;;-145.39;100.00
37078;BME280;22989;55.998;37.212;2022-10-14T07:54:12;63935.97;;;-145.39;100.00
37078;BME280;22989;55.998;37.212;2022-10-14T07:56:41;63935.97;;;-145.39;100.00
37078;BME280;22989;55.998;37.212;2022-10-14T07:59:07;63935.97;;;-145.39;100.00
37078;BME280;22989;55.998;37.212;2022-10-14T08:01:33;63935.97;;;-145.39;100.00
37078;BME280;22989;55.998;37.212;2022-10-14T08:03:59;63935.97;;;-145.39;100.00
37078;BME280;22989;55.998;37.212;2022-10-14T08:06:25;63935.97;;;-145.39;100.00
37078;BME280;22989;55.998;37.212;2022-10-14T08:08:50;63935.97;;;-145.39;100.00
37078;BME280;22989;55.998;37.212;2022-10-14T08:11:19;63935.97;;;-145.39;100.00
37078;BME280;22989;55.998;37.212;2022-10-14T08:13:45;63935.97;;;-145.39;100.00
37078;BME280;22989;55.998;37.212;2022-10-14T08:16:27;63935.97;;;-145.39;100.00
37078;BME280;22989;55.998;37.212;2022-10-14T08:18:55;63935.97;;;-145.39;100.00
37078;BME280;22989;55.998;37.212;2022-10-14T08:21:21;63935.97;;;-145.39;100.00
37078;BME280;22989;55.998;37.212;2022-10-14T08:23:47;63935.97;;;-145.39;100.00
37078;BME280;22989;55.998;37.212;2022-10-14T08:26:27;63935.97;;;-145.39;100.00
37078;BME280;22989;55.998;37.212;2022-10-14T08:28:53;63935.97;;;-145.39;100.00
37078;BME280;22989;55.998;37.212;2022-10-14T08:31:19;63935.97;;;-145.39;100.00
37078;BME280;22989;55.998;37.212;2022-10-14T08:33:45;63935.97;;;-145.39;100.00
37078;BME280;22989;55.998;37.212;2022-10-14T08:36:11;63935.97;;;-145.39;100.00
37078;BME280;22989;55.998;37.212;2022-10-14T08:38:37;63935.97;;;-145.39;100.00
37078;BME280;22989;55.998;37.212;2022-10-14T08:49:20;63935.97;;;-145.39;100.00
37078;BME280;22989;55.998;37.212;2022-10-14T08:52:02;63935.97;;;-145.39;100.00
37078;BME280;22989;55.998;37.212;2022-10-14T08:54:40;63935.97;;;-145.39;100.00
37078;BME280;22989;55.998;37.212;2022-10-14T08:57:15;63935.97;;;-145.39;100.00
37078;BME280;22989;55.998;37.212;2022-10-14T08:59:42;63935.97;;;-145.39;100.00
37078;BME280;22989;55.998;37.212;2022-10-14T09:02:37;63935.97;;;-145.39;100.00
37078;BME280;22989;55.998;37.212;2022-10-14T09:05:12;63935.97;;;-145.39;100.00
37078;BME280;22989;55.998;37.212;2022-10-14T09:07:40;63935.97;;;-145.39;100.00
37078;BME280;22989;55.998;37.212;2022-10-14T09:10:10;63935.97;;;-145.39;100.00
37078;BME280;22989;55.998;37.212;2022-10-14T09:12:38;63935.97;;;-145.39;100.00
37078;BME280;22989;55.998;37.212;2022-10-14T09:20:59;63935.97;;;-145.39;100.00
37078;BME280;22989;55.998;37.212;2022-10-14T09:23:26;63935.97;;;-145.39;100.00
37078;BME280;22989;55.998;37.212;2022-10-14T09:25:56;63935.97;;;-145.39;100.00
37078;BME280;22989;55.998;37.212;2022-10-14T09:28:34;63935.97;;;-145.39;100.00
37078;BME280;22989;55.998;37.212;2022-10-14T09:31:04;63935.97;;;-145.39;100.00
37078;BME280;22989;55.998;37.212;2022-10-14T09:33:31;63935.97;;;-145.39;100.00
37078;BME280;22989;55.998;37.212;2022-10-14T09:35:59;63935.97;;;-145.39;100.00
37078;BME280;22989;55.998;37.212;2022-10-14T09:38:25;63935.97;;;-145.39;100.00
37078;BME280;22989;55.998;37.212;2022-10-14T09:40:57;63935.97;;;-145.39;100.00
37078;BME280;22989;55.998;37.212;2022-10-14T09:43:26;63935.97;;;-145.39;100.00
37078;BME280;22989;55.998;37.212;2022-10-14T09:45:57;63935.97;;;-145.39;100.00
37078;BME280;22989;55.998;37.212;2022-10-14T09:48:49;63935.97;;;-145.39;100.00
37078;BME280;22989;55.998;37.212;2022-10-14T09:51:24;63935.97;;;-145.39;100.00
37078;BME280;22989;55.998;37.212;2022-10-14T09:53:56;63935.97;;;-145.39;100.00
37078;BME280;22989;55.998;37.212;2022-10-14T09:59:03;63935.97;;;-145.39;100.00
37078;BME280;22989;55.998;37.212;2022-10-14T10:01:37;63935.97;;;-145.39;100.00
37078;BME280;22989;55.998;37.212;2022-10-14T10:04:24;63935.97;;;-145.39;100.00
37078;BME280;22989;55.998;37.212;2022-10-14T10:06:53;63935.97;;;-145.39;100.00
37078;BME280;22989;55.998;37.212;2022-10-14T10:09:20;63935.97;;;-145.39;100.00
37078;BME280;22989;55.998;37.212;2022-10-14T10:11:46;63935.97;;;-145.39;100.00
37078;BME280;22989;55.998;37.212;2022-10-14T10:16:42;63935.97;;;-145.39;100.00
37078;BME280;22989;55.998;37.212;2022-10-14T10:19:27;63935.97;;;-145.39;100.00
37078;BME280;22989;55.998;37.212;2022-10-14T10:21:54;63935.97;;;-145.39;100.00
37078;BME280;22989;55.998;37.212;2022-10-14T10:24:22;63935.97;;;-145.39;100.00
37078;BME280;22989;55.998;37.212;2022-10-14T10:26:48;63935.97;;;-145.39;100.00
37078;BME280;22989;55.998;37.212;2022-10-14T10:29:25;63935.97;;;-145.39;100.00
37078;BME280;22989;55.998;37.212;2022-10-14T10:32:08;63935.97;;;-145.39;100.00
37078;BME280;22989;55.998;37.212;2022-10-14T10:40:19;63935.97;;;-145.39;100.00
37078;BME280;22989;55.998;37.212;2022-10-14T10:43:35;63935.97;;;-145.39;100.00
37078;BME280;22989;55.998;37.212;2022-10-14T10:46:18;63935.97;;;-145.39;100.00
37078;BME280;22989;55.998;37.212;2022-10-14T10:48:49;63935.97;;;-145.39;100.00
37078;BME280;22989;55.998;37.212;2022-10-14T10:57:03;63935.97;;;-145.39;100.00
37078;BME280;22989;55.998;37.212;2022-10-14T10:59:48;63935.97;;;-145.39;100.00
37078;BME280;22989;55.998;37.212;2022-10-14T11:05:03;63935.97;;;-145.39;100.00
37078;BME280;22989;55.998;37.212;2022-10-14T11:07:49;63935.97;;;-145.39;100.00
37078;BME280;22989;55.998;37.212;2022-10-14T11:19:32;63935.97;;;-145.39;100.00
37078;BME280;22989;55.998;37.212;2022-10-14T11:25:16;63935.97;;;-145.39;100.00
37078;BME280;22989;55.998;37.212;2022-10-14T11:28:18;63935.97;;;-145.39;100.00
37078;BME280;22989;55.998;37.212;2022-10-14T11:33:31;63935.97;;;-145.39;100.00
37078;BME280;22989;55.998;37.212;2022-10-14T11:39:13;63935.97;;;-145.39;100.00
37078;BME280;22989;55.998;37.212;2022-10-14T11:42:17;63935.97;;;-145.39;100.00
37078;BME280;22989;55.998;37.212;2022-10-14T11:44:50;63935.97;;;-145.39;100.00
37078;BME280;22989;55.998;37.212;2022-10-14T11:47:23;63935.97;;;-145.39;100.00
37078;BME280;22989;55.998;37.212;2022-10-14T11:49:57;63935.97;;;-145.39;100.00
37078;BME280;22989;55.998;37.212;2022-10-14T11:53:04;63935.97;;;-145.39;100.00
37078;BME280;22989;55.998;37.212;2022-10-14T11:55:38;63935.97;;;-145.39;100.00
37078;BME280;22989;55.998;37.212;2022-10-14T11:58:10;63935.97;;;-145.39;100.00
37078;BME280;22989;55.998;37.212;2022-10-14T12:00:59;63935.97;;;-145.39;100.00
37078;BME280;22989;55.998;37.212;2022-10-14T12:08:54;63935.97;;;-145.39;100.00
37078;BME280;22989;55.998;37.212;2022-10-14T12:16:31;63935.97;;;-145.39;100.00
37078;BME280;22989;55.998;37.212;2022-10-14T12:18:57;63935.97;;;-145.39;100.00
37078;BME280;22989;55.998;37.212;2022-10-14T12:21:31;63935.97;;;-145.39;100.00
37078;BME280;22989;55.998;37.212;2022-10-14T12:24:18;63935.97;;;-145.39;100.00
37078;BME280;22989;55.998;37.212;2022-10-14T12:27:05;63935.97;;;-145.39;100.00
37078;BME280;22989;55.998;37.212;2022-10-14T12:29:37;63935.97;;;-145.39;100.00
37078;BME280;22989;55.998;37.212;2022-10-14T12:32:59;63935.97;;;-145.39;100.00
37078;BME280;22989;55.998;37.212;2022-10-14T12:38:20;63935.97;;;-145.39;100.00
37078;BME280;22989;55.998;37.212;2022-10-14T12:40:46;63935.97;;;-145.39;100.00
37078;BME280;22989;55.998;37.212;2022-10-14T12:43:24;63935.97;;;-145.39;100.00
37078;BME280;22989;55.998;37.212;2022-10-14T12:46:21;63935.97;;;-145.39;100.00
37078;BME280;22989;55.998;37.212;2022-10-14T12:48:48;63935.97;;;-145.39;100.00
37078;BME280;22989;55.998;37.212;2022-10-14T12:51:21;63935.97;;;-145.39;100.00
37078;BME280;22989;55.998;37.212;2022-10-14T12:53:55;63935.97;;;-145.39;100.00
37078;BME280;22989;55.998;37.212;2022-10-14T12:56:34;63935.97;;;-145.39;100.00
37078;BME280;22989;55.998;37.212;2022-10-14T12:59:02;63935.97;;;-145.39;100.00
37078;BME280;22989;55.998;37.212;2022-10-14T13:01:30;63935.97;;;-145.39;100.00
37078;BME280;22989;55.998;37.212;2022-10-14T13:04:01;63935.97;;;-145.39;100.00
37078;BME280;22989;55.998;37.212;2022-10-14T13:06:38;63935.97;;;-145.39;100.00
37078;BME280;22989;55.998;37.212;2022-10-14T13:11:39;63935.97;;;-145.39;100.00
37078;BME280;22989;55.998;37.212;2022-10-14T13:22:03;63935.97;;;-145.39;100.00
37078;BME280;22989;55.998;37.212;2022-10-14T13:24:36;63935.97;;;-145.39;100.00
37078;BME280;22989;55.998;37.212;2022-10-14T13:27:35;63935.97;;;-145.39;100.00
37078;BME280;22989;55.998;37.212;2022-10-14T13:30:17;63935.97;;;-145.39;100.00
37078;BME280;22989;55.998;37.212;2022-10-14T13:32:56;63935.97;;;-145.39;100.00
37078;BME280;22989;55.998;37.212;2022-10-14T13:35:36;63935.97;;;-145.39;100.00
37078;BME280;22989;55.998;37.212;2022-10-14T13:38:13;63935.97;;;-145.39;100.00
37078;BME280;22989;55.998;37.212;2022-10-14T13:40:46;63935.97;;;-145.39;100.00
37078;BME280;22989;55.998;37.212;2022-10-14T13:43:38;63935.97;;;-145.39;100.00
37078;BME280;22989;55.998;37.212;2022-10-14T13:46:15;63935.97;;;-145.39;100.00
37078;BME280;22989;55.998;37.212;2022-10-14T13:48:46;63935.97;;;-145.39;100.00
37078;BME280;22989;55.998;37.212;2022-10-14T13:56:40;63935.97;;;-145.39;100.00
37078;BME280;22989;55.998;37.212;2022-10-14T13:59:20;63935.97;;;-145.39;100.00
37078;BME280;22989;55.998;37.212;2022-10-14T14:01:51;63935.97;;;-145.39;100.00
37078;BME280;22989;55.998;37.212;2022-10-14T14:04:25;63935.97;;;-145.39;100.00
37078;BME280;22989;55.998;37.212;2022-10-14T14:06:53;63935.97;;;-145.39;100.00
37078;BME280;22989;55.998;37.212;2022-10-14T14:09:25;63935.97;;;-145.39;100.00
37078;BME280;22989;55.998;37.212;2022-10-14T14:11:55;63935.97;;;-145.39;100.00
37078;BME280;22989;55.998;37.212;2022-10-14T14:14:35;63935.97;;;-145.39;100.00
37078;BME280;22989;55.998;37.212;2022-10-14T14:17:04;63935.97;;;-145.39;100.00
37078;BME280;22989;55.998;37.212;2022-10-14T14:19:34;63935.97;;;-145.39;100.00
37078;BME280;22989;55.998;37.212;2022-10-14T14:22:10;63935.97;;;-145.39;100.00
37078;BME280;22989;55.998;37.212;2022-10-14T14:24:40;63935.97;;;-145.39;100.00
37078;BME280;22989;55.998;37.212;2022-10-14T14:27:11;63935.97;;;-145.39;100.00
37078;BME280;22989;55.998;37.212;2022-10-14T14:29:41;63935.97;;;-145.39;100.00
37078;BME280;22989;55.998;37.212;2022-10-14T14:32:12;63935.97;;;-145.39;100.00
37078;BME280;22989;55.998;37.212;2022-10-14T14:34:43;63935.97;;;-145.39;100.00
37078;BME280;22989;55.998;37.212;2022-10-14T14:37:24;63935.97;;;-145.39;100.00
37078;BME280;22989;55.998;37.212;2022-10-14T14:40:02;63935.97;;;-145.39;100.00
37078;BME280;22989;55.998;37.212;2022-10-14T14:42:34;63935.97;;;-145.39;100.00
37078;BME280;22989;55.998;37.212;2022-10-14T14:45:13;63935.97;;;-145.39;100.00
37078;BME280;22989;55.998;37.212;2022-10-14T14:47:40;63935.97;;;-145.39;100.00